sensor_id;sensor_type;location;lat;lon;timestamp;P1;durP1;ratioP1;P2;durP2;ratioP2
67751;SDS011;54551;51.068;5.826;2023-02-15T00:02:10;29.20;;;21.47;;
67751;SDS011;54551;51.068;5.826;2023-02-15T00:05:26;31.83;;;20.87;;
67751;SDS011;54551;51.068;5.826;2023-02-15T00:08:06;31.50;;;21.97;;
67751;SDS011;54551;51.068;5.826;2023-02-15T00:10:50;28.33;;;20.20;;
67751;SDS011;54551;51.068;5.826;2023-02-15T00:13:49;24.87;;;18.73;;
67751;SDS011;54551;51.068;5.826;2023-02-15T00:16:51;26.37;;;18.57;;
67751;SDS011;54551;51.068;5.826;2023-02-15T00:19:35;28.83;;;20.13;;
67751;SDS011;54551;51.068;5.826;2023-02-15T00:22:04;34.23;;;23.23;;
67751;SDS011;54551;51.068;5.826;2023-02-15T00:24:48;32.70;;;23.33;;
67751;SDS011;54551;51.068;5.826;2023-02-15T00:27:20;32.47;;;22.80;;
67751;SDS011;54551;51.068;5.826;2023-02-15T00:30:02;29.53;;;21.47;;
67751;SDS011;54551;51.068;5.826;2023-02-15T00:32:46;29.93;;;21.80;;
67751;SDS011;54551;51.068;5.826;2023-02-15T00:35:25;33.87;;;21.90;;
67751;SDS011;54551;51.068;5.826;2023-02-15T00:37:53;30.80;;;21.47;;
67751;SDS011;54551;51.068;5.826;2023-02-15T00:40:37;34.57;;;22.90;;
67751;SDS011;54551;51.068;5.826;2023-02-15T00:43:11;29.10;;;21.30;;
67751;SDS011;54551;51.068;5.826;2023-02-15T00:46:07;30.57;;;19.43;;
67751;SDS011;54551;51.068;5.826;2023-02-15T00:51:48;28.63;;;19.53;;
67751;SDS011;54551;51.068;5.826;2023-02-15T00:54:33;29.17;;;20.87;;
67751;SDS011;54551;51.068;5.826;2023-02-15T00:57:29;29.93;;;19.80;;
67751;SDS011;54551;51.068;5.826;2023-02-15T01:00:26;31.30;;;21.90;;
67751;SDS011;54551;51.068;5.826;2023-02-15T01:03:08;32.67;;;21.03;;
67751;SDS011;54551;51.068;5.826;2023-02-15T01:05:41;35.97;;;24.77;;
67751;SDS011;54551;51.068;5.826;2023-02-15T01:08:15;34.17;;;24.00;;
67751;SDS011;54551;51.068;5.826;2023-02-15T01:10:46;31.33;;;22.57;;
67751;SDS011;54551;51.068;5.826;2023-02-15T01:16:16;32.43;;;21.17;;
67751;SDS011;54551;51.068;5.826;2023-02-15T01:18:56;31.67;;;22.13;;
67751;SDS011;54551;51.068;5.826;2023-02-15T01:25:07;30.30;;;21.83;;
67751;SDS011;54551;51.068;5.826;2023-02-15T01:27:48;29.27;;;20.83;;
67751;SDS011;54551;51.068;5.826;2023-02-15T01:33:13;28.57;;;21.50;;
67751;SDS011;54551;51.068;5.826;2023-02-15T01:36:09;32.47;;;21.07;;
67751;SDS011;54551;51.068;5.826;2023-02-15T01:39:00;27.53;;;20.57;;
67751;SDS011;54551;51.068;5.826;2023-02-15T01:48:30;30.60;;;20.77;;
67751;SDS011;54551;51.068;5.826;2023-02-15T01:51:25;32.60;;;21.70;;
67751;SDS011;54551;51.068;5.826;2023-02-15T01:54:46;35.20;;;22.00;;
67751;SDS011;54551;51.068;5.826;2023-02-15T01:57:41;36.67;;;22.43;;
67751;SDS011;54551;51.068;5.826;2023-02-15T02:00:31;31.70;;;22.03;;
67751;SDS011;54551;51.068;5.826;2023-02-15T02:03:36;32.07;;;21.63;;
67751;SDS011;54551;51.068;5.826;2023-02-15T02:06:20;32.80;;;23.13;;
67751;SDS011;54551;51.068;5.826;2023-02-15T02:08:57;36.60;;;23.00;;
67751;SDS011;54551;51.068;5.826;2023-02-15T02:11:31;33.70;;;24.03;;
67751;SDS011;54551;51.068;5.826;2023-02-15T02:14:14;36.97;;;24.27;;
67751;SDS011;54551;51.068;5.826;2023-02-15T02:20:45;34.53;;;22.63;;
67751;SDS011;54551;51.068;5.826;2023-02-15T02:36:22;34.53;;;22.93;;
67751;SDS011;54551;51.068;5.826;2023-02-15T02:39:10;32.20;;;22.47;;
67751;SDS011;54551;51.068;5.826;2023-02-15T02:42:48;35.30;;;22.90;;
67751;SDS011;54551;51.068;5.826;2023-02-15T02:45:28;34.13;;;22.27;;
67751;SDS011;54551;51.068;5.826;2023-02-15T02:48:34;35.60;;;24.13;;
67751;SDS011;54551;51.068;5.826;2023-02-15T02:51:16;36.77;;;23.70;;
67751;SDS011;54551;51.068;5.826;2023-02-15T02:54:00;38.47;;;25.10;;
67751;SDS011;54551;51.068;5.826;2023-02-15T02:56:54;36.47;;;25.20;;
67751;SDS011;54551;51.068;5.826;2023-02-15T02:59:52;44.37;;;26.27;;
67751;SDS011;54551;51.068;5.826;2023-02-15T03:02:28;41.53;;;26.10;;
67751;SDS011;54551;51.068;5.826;2023-02-15T03:05:13;37.67;;;25.07;;
67751;SDS011;54551;51.068;5.826;2023-02-15T03:07:58;38.57;;;25.77;;
67751;SDS011;54551;51.068;5.826;2023-02-15T03:10:36;36.43;;;25.00;;
67751;SDS011;54551;51.068;5.826;2023-02-15T03:13:09;35.83;;;24.77;;
67751;SDS011;54551;51.068;5.826;2023-02-15T03:16:04;32.50;;;22.87;;
67751;SDS011;54551;51.068;5.826;2023-02-15T03:19:09;33.23;;;22.80;;
67751;SDS011;54551;51.068;5.826;2023-02-15T03:22:10;37.30;;;25.20;;
67751;SDS011;54551;51.068;5.826;2023-02-15T03:25:13;39.97;;;25.87;;
67751;SDS011;54551;51.068;5.826;2023-02-15T03:28:41;40.43;;;25.00;;
67751;SDS011;54551;51.068;5.826;2023-02-15T03:31:16;34.40;;;23.27;;
67751;SDS011;54551;51.068;5.826;2023-02-15T03:34:37;35.87;;;24.17;;
67751;SDS011;54551;51.068;5.826;2023-02-15T03:37:32;37.53;;;25.33;;
67751;SDS011;54551;51.068;5.826;2023-02-15T03:40:35;33.60;;;23.60;;
67751;SDS011;54551;51.068;5.826;2023-02-15T03:46:51;37.17;;;24.47;;
67751;SDS011;54551;51.068;5.826;2023-02-15T03:53:09;35.73;;;24.47;;
67751;SDS011;54551;51.068;5.826;2023-02-15T03:55:44;36.43;;;25.20;;
67751;SDS011;54551;51.068;5.826;2023-02-15T03:58:29;36.90;;;23.70;;
67751;SDS011;54551;51.068;5.826;2023-02-15T04:01:26;40.00;;;25.60;;
67751;SDS011;54551;51.068;5.826;2023-02-15T04:04:39;37.20;;;24.67;;
67751;SDS011;54551;51.068;5.826;2023-02-15T04:07:36;38.03;;;25.63;;
67751;SDS011;54551;51.068;5.826;2023-02-15T04:10:36;38.17;;;25.13;;
67751;SDS011;54551;51.068;5.826;2023-02-15T04:13:39;42.33;;;26.27;;
67751;SDS011;54551;51.068;5.826;2023-02-15T04:16:17;37.03;;;26.30;;
67751;SDS011;54551;51.068;5.826;2023-02-15T04:19:03;39.77;;;25.80;;
67751;SDS011;54551;51.068;5.826;2023-02-15T04:22:15;39.20;;;25.07;;
67751;SDS011;54551;51.068;5.826;2023-02-15T04:25:22;39.07;;;25.03;;
67751;SDS011;54551;51.068;5.826;2023-02-15T04:28:07;39.03;;;24.87;;
67751;SDS011;54551;51.068;5.826;2023-02-15T04:30:46;40.60;;;25.80;;
67751;SDS011;54551;51.068;5.826;2023-02-15T04:33:28;41.13;;;25.37;;
67751;SDS011;54551;51.068;5.826;2023-02-15T04:36:16;37.90;;;25.23;;
67751;SDS011;54551;51.068;5.826;2023-02-15T04:39:15;41.20;;;26.47;;
67751;SDS011;54551;51.068;5.826;2023-02-15T04:41:58;38.23;;;26.37;;
67751;SDS011;54551;51.068;5.826;2023-02-15T04:44:34;40.40;;;26.50;;
67751;SDS011;54551;51.068;5.826;2023-02-15T04:47:31;37.73;;;24.50;;
67751;SDS011;54551;51.068;5.826;2023-02-15T04:53:19;37.43;;;24.90;;
67751;SDS011;54551;51.068;5.826;2023-02-15T04:56:15;33.77;;;23.20;;
67751;SDS011;54551;51.068;5.826;2023-02-15T04:59:09;32.60;;;23.40;;
67751;SDS011;54551;51.068;5.826;2023-02-15T05:02:05;36.20;;;24.50;;
67751;SDS011;54551;51.068;5.826;2023-02-15T05:05:02;36.53;;;25.40;;
67751;SDS011;54551;51.068;5.826;2023-02-15T05:07:47;45.70;;;26.10;;
67751;SDS011;54551;51.068;5.826;2023-02-15T05:10:47;36.37;;;24.47;;
67751;SDS011;54551;51.068;5.826;2023-02-15T05:13:21;36.20;;;23.80;;
67751;SDS011;54551;51.068;5.826;2023-02-15T05:16:00;37.80;;;23.03;;
67751;SDS011;54551;51.068;5.826;2023-02-15T05:19:03;33.63;;;23.47;;
67751;SDS011;54551;51.068;5.826;2023-02-15T05:21:33;36.83;;;24.93;;
67751;SDS011;54551;51.068;5.826;2023-02-15T05:24:26;40.07;;;26.30;;
67751;SDS011;54551;51.068;5.826;2023-02-15T05:27:32;40.93;;;26.03;;
67751;SDS011;54551;51.068;5.826;2023-02-15T05:30:49;41.83;;;26.80;;
67751;SDS011;54551;51.068;5.826;2023-02-15T05:33:47;43.67;;;27.50;;
67751;SDS011;54551;51.068;5.826;2023-02-15T05:36:36;36.97;;;24.93;;
67751;SDS011;54551;51.068;5.826;2023-02-15T05:39:21;42.70;;;27.03;;
67751;SDS011;54551;51.068;5.826;2023-02-15T05:42:23;42.80;;;27.87;;
67751;SDS011;54551;51.068;5.826;2023-02-15T05:45:59;43.20;;;27.37;;
67751;SDS011;54551;51.068;5.826;2023-02-15T05:48:56;41.87;;;26.57;;
67751;SDS011;54551;51.068;5.826;2023-02-15T05:51:49;42.03;;;27.17;;
67751;SDS011;54551;51.068;5.826;2023-02-15T05:55:19;42.27;;;26.13;;
67751;SDS011;54551;51.068;5.826;2023-02-15T05:58:34;37.10;;;23.77;;
67751;SDS011;54551;51.068;5.826;2023-02-15T06:02:08;39.07;;;24.17;;
67751;SDS011;54551;51.068;5.826;2023-02-15T06:05:05;37.77;;;25.20;;
67751;SDS011;54551;51.068;5.826;2023-02-15T06:07:40;38.93;;;25.13;;
67751;SDS011;54551;51.068;5.826;2023-02-15T06:10:16;39.80;;;26.13;;
67751;SDS011;54551;51.068;5.826;2023-02-15T06:13:45;40.50;;;27.30;;
67751;SDS011;54551;51.068;5.826;2023-02-15T06:17:02;41.03;;;26.37;;
67751;SDS011;54551;51.068;5.826;2023-02-15T06:20:22;36.43;;;25.60;;
67751;SDS011;54551;51.068;5.826;2023-02-15T06:23:04;42.37;;;27.03;;
67751;SDS011;54551;51.068;5.826;2023-02-15T06:25:36;39.77;;;27.40;;
67751;SDS011;54551;51.068;5.826;2023-02-15T06:28:13;43.37;;;27.60;;
67751;SDS011;54551;51.068;5.826;2023-02-15T06:30:47;40.70;;;27.23;;
67751;SDS011;54551;51.068;5.826;2023-02-15T06:33:16;41.00;;;26.17;;
67751;SDS011;54551;51.068;5.826;2023-02-15T06:35:48;41.77;;;27.07;;
67751;SDS011;54551;51.068;5.826;2023-02-15T06:39:05;40.13;;;25.83;;
67751;SDS011;54551;51.068;5.826;2023-02-15T06:45:28;47.23;;;27.27;;
67751;SDS011;54551;51.068;5.826;2023-02-15T06:48:00;44.40;;;27.97;;
67751;SDS011;54551;51.068;5.826;2023-02-15T06:50:49;39.60;;;26.93;;
67751;SDS011;54551;51.068;5.826;2023-02-15T06:53:28;48.53;;;28.50;;
67751;SDS011;54551;51.068;5.826;2023-02-15T06:56:35;38.03;;;25.77;;
67751;SDS011;54551;51.068;5.826;2023-02-15T06:59:41;41.73;;;27.13;;
67751;SDS011;54551;51.068;5.826;2023-02-15T07:10:15;38.53;;;25.13;;
67751;SDS011;54551;51.068;5.826;2023-02-15T07:30:34;40.23;;;25.97;;
67751;SDS011;54551;51.068;5.826;2023-02-15T07:34:22;39.10;;;26.33;;
67751;SDS011;54551;51.068;5.826;2023-02-15T07:37:10;38.97;;;26.43;;
67751;SDS011;54551;51.068;5.826;2023-02-15T07:40:07;40.17;;;26.83;;
67751;SDS011;54551;51.068;5.826;2023-02-15T07:43:15;40.13;;;26.07;;
67751;SDS011;54551;51.068;5.826;2023-02-15T07:46:25;36.20;;;24.97;;
67751;SDS011;54551;51.068;5.826;2023-02-15T07:50:09;35.30;;;24.63;;
67751;SDS011;54551;51.068;5.826;2023-02-15T07:53:29;36.17;;;24.67;;
67751;SDS011;54551;51.068;5.826;2023-02-15T08:03:19;28.03;;;20.87;;
67751;SDS011;54551;51.068;5.826;2023-02-15T08:06:51;28.17;;;20.17;;
67751;SDS011;54551;51.068;5.826;2023-02-15T08:10:18;23.97;;;19.97;;
67751;SDS011;54551;51.068;5.826;2023-02-15T08:13:57;24.97;;;20.17;;
67751;SDS011;54551;51.068;5.826;2023-02-15T08:21:02;24.23;;;19.87;;
67751;SDS011;54551;51.068;5.826;2023-02-15T08:28:32;21.43;;;18.87;;
67751;SDS011;54551;51.068;5.826;2023-02-15T08:31:58;24.77;;;20.57;;
67751;SDS011;54551;51.068;5.826;2023-02-15T08:43:11;21.80;;;19.43;;
67751;SDS011;54551;51.068;5.826;2023-02-15T08:46:08;22.03;;;19.53;;
67751;SDS011;54551;51.068;5.826;2023-02-15T08:49:27;23.83;;;18.63;;
67751;SDS011;54551;51.068;5.826;2023-02-15T08:53:07;21.43;;;19.13;;
67751;SDS011;54551;51.068;5.826;2023-02-15T08:56:43;25.13;;;20.03;;
67751;SDS011;54551;51.068;5.826;2023-02-15T09:04:06;25.93;;;19.77;;
67751;SDS011;54551;51.068;5.826;2023-02-15T09:07:16;24.60;;;20.17;;
67751;SDS011;54551;51.068;5.826;2023-02-15T09:13:46;25.00;;;21.53;;
67751;SDS011;54551;51.068;5.826;2023-02-15T09:17:33;25.50;;;21.73;;
67751;SDS011;54551;51.068;5.826;2023-02-15T09:20:48;24.93;;;21.73;;
67751;SDS011;54551;51.068;5.826;2023-02-15T09:24:20;24.23;;;20.70;;
67751;SDS011;54551;51.068;5.826;2023-02-15T09:27:35;23.87;;;20.63;;
67751;SDS011;54551;51.068;5.826;2023-02-15T09:30:47;24.63;;;20.77;;
67751;SDS011;54551;51.068;5.826;2023-02-15T09:33:26;29.20;;;23.70;;
67751;SDS011;54551;51.068;5.826;2023-02-15T09:47:02;27.13;;;22.57;;
67751;SDS011;54551;51.068;5.826;2023-02-15T09:53:35;25.47;;;22.33;;
67751;SDS011;54551;51.068;5.826;2023-02-15T10:10:22;28.87;;;22.80;;
67751;SDS011;54551;51.068;5.826;2023-02-15T10:13:40;23.70;;;20.97;;
67751;SDS011;54551;51.068;5.826;2023-02-15T10:21:32;22.73;;;20.33;;
67751;SDS011;54551;51.068;5.826;2023-02-15T10:33:07;28.03;;;22.40;;
67751;SDS011;54551;51.068;5.826;2023-02-15T10:42:20;26.10;;;22.13;;
67751;SDS011;54551;51.068;5.826;2023-02-15T10:49:17;23.97;;;21.13;;
67751;SDS011;54551;51.068;5.826;2023-02-15T11:00:39;26.10;;;21.50;;
67751;SDS011;54551;51.068;5.826;2023-02-15T11:08:34;28.30;;;22.57;;
67751;SDS011;54551;51.068;5.826;2023-02-15T11:22:43;22.20;;;18.57;;
67751;SDS011;54551;51.068;5.826;2023-02-15T11:30:57;24.13;;;18.07;;
67751;SDS011;54551;51.068;5.826;2023-02-15T11:41:34;26.07;;;20.27;;
67751;SDS011;54551;51.068;5.826;2023-02-15T11:48:41;22.87;;;18.50;;
67751;SDS011;54551;51.068;5.826;2023-02-15T11:51:39;24.30;;;20.20;;
67751;SDS011;54551;51.068;5.826;2023-02-15T11:54:07;25.23;;;20.13;;
67751;SDS011;54551;51.068;5.826;2023-02-15T11:57:48;23.60;;;19.67;;
67751;SDS011;54551;51.068;5.826;2023-02-15T12:00:46;25.53;;;19.80;;
67751;SDS011;54551;51.068;5.826;2023-02-15T12:06:42;23.80;;;19.20;;
67751;SDS011;54551;51.068;5.826;2023-02-15T12:14:20;21.37;;;17.87;;
67751;SDS011;54551;51.068;5.826;2023-02-15T12:20:45;25.07;;;18.90;;
67751;SDS011;54551;51.068;5.826;2023-02-15T12:23:48;26.47;;;19.07;;
67751;SDS011;54551;51.068;5.826;2023-02-15T12:27:04;26.23;;;20.40;;
67751;SDS011;54551;51.068;5.826;2023-02-15T12:33:46;26.57;;;18.73;;
67751;SDS011;54551;51.068;5.826;2023-02-15T12:40:38;22.20;;;17.67;;
67751;SDS011;54551;51.068;5.826;2023-02-15T12:53:32;21.67;;;17.50;;
67751;SDS011;54551;51.068;5.826;2023-02-15T12:56:49;23.87;;;18.67;;
67751;SDS011;54551;51.068;5.826;2023-02-15T12:59:55;23.13;;;18.13;;
67751;SDS011;54551;51.068;5.826;2023-02-15T13:02:44;21.20;;;16.87;;
67751;SDS011;54551;51.068;5.826;2023-02-15T13:08:17;22.67;;;18.10;;
67751;SDS011;54551;51.068;5.826;2023-02-15T13:11:07;25.77;;;18.03;;
67751;SDS011;54551;51.068;5.826;2023-02-15T13:16:52;23.30;;;17.87;;
67751;SDS011;54551;51.068;5.826;2023-02-15T13:20:00;24.13;;;17.63;;
67751;SDS011;54551;51.068;5.826;2023-02-15T13:22:57;24.47;;;17.97;;
67751;SDS011;54551;51.068;5.826;2023-02-15T13:25:31;22.23;;;17.53;;
67751;SDS011;54551;51.068;5.826;2023-02-15T13:28:37;27.10;;;19.27;;
67751;SDS011;54551;51.068;5.826;2023-02-15T13:31:27;23.87;;;18.90;;
67751;SDS011;54551;51.068;5.826;2023-02-15T13:34:05;23.60;;;18.07;;
67751;SDS011;54551;51.068;5.826;2023-02-15T13:42:20;23.97;;;19.33;;
67751;SDS011;54551;51.068;5.826;2023-02-15T13:48:20;19.77;;;17.33;;
67751;SDS011;54551;51.068;5.826;2023-02-15T13:57:20;24.20;;;19.40;;
67751;SDS011;54551;51.068;5.826;2023-02-15T14:12:29;25.50;;;19.60;;
67751;SDS011;54551;51.068;5.826;2023-02-15T14:23:41;26.00;;;19.53;;
67751;SDS011;54551;51.068;5.826;2023-02-15T14:32:45;26.67;;;19.17;;
67751;SDS011;54551;51.068;5.826;2023-02-15T14:35:29;29.17;;;20.10;;
67751;SDS011;54551;51.068;5.826;2023-02-15T14:47:18;28.67;;;19.87;;
67751;SDS011;54551;51.068;5.826;2023-02-15T14:49:56;25.63;;;19.57;;
67751;SDS011;54551;51.068;5.826;2023-02-15T14:52:25;23.83;;;18.83;;
67751;SDS011;54551;51.068;5.826;2023-02-15T14:55:00;25.50;;;19.13;;
67751;SDS011;54551;51.068;5.826;2023-02-15T14:57:33;26.03;;;18.27;;
67751;SDS011;54551;51.068;5.826;2023-02-15T15:00:00;27.63;;;19.90;;
67751;SDS011;54551;51.068;5.826;2023-02-15T15:05:54;27.53;;;19.90;;
67751;SDS011;54551;51.068;5.826;2023-02-15T15:08:37;28.37;;;19.97;;
67751;SDS011;54551;51.068;5.826;2023-02-15T15:11:37;28.03;;;18.73;;
67751;SDS011;54551;51.068;5.826;2023-02-15T15:14:08;26.30;;;19.40;;
67751;SDS011;54551;51.068;5.826;2023-02-15T15:19:13;25.97;;;19.23;;
67751;SDS011;54551;51.068;5.826;2023-02-15T15:22:39;27.33;;;18.93;;
67751;SDS011;54551;51.068;5.826;2023-02-15T15:34:41;25.63;;;18.50;;
67751;SDS011;54551;51.068;5.826;2023-02-15T15:37:45;31.90;;;20.40;;
67751;SDS011;54551;51.068;5.826;2023-02-15T15:43:43;25.13;;;18.83;;
67751;SDS011;54551;51.068;5.826;2023-02-15T15:46:41;23.17;;;18.07;;
67751;SDS011;54551;51.068;5.826;2023-02-15T15:58:08;24.50;;;19.07;;
67751;SDS011;54551;51.068;5.826;2023-02-15T16:01:05;26.20;;;19.00;;
67751;SDS011;54551;51.068;5.826;2023-02-15T16:03:52;27.03;;;20.37;;
67751;SDS011;54551;51.068;5.826;2023-02-15T16:06:52;29.17;;;20.70;;
67751;SDS011;54551;51.068;5.826;2023-02-15T16:12:40;28.83;;;21.30;;
67751;SDS011;54551;51.068;5.826;2023-02-15T16:19:05;30.97;;;22.13;;
67751;SDS011;54551;51.068;5.826;2023-02-15T16:21:43;26.90;;;19.17;;
67751;SDS011;54551;51.068;5.826;2023-02-15T16:24:32;26.70;;;19.60;;
67751;SDS011;54551;51.068;5.826;2023-02-15T16:30:31;30.47;;;19.90;;
67751;SDS011;54551;51.068;5.826;2023-02-15T16:33:04;31.17;;;20.30;;
67751;SDS011;54551;51.068;5.826;2023-02-15T16:42:52;28.53;;;19.47;;
67751;SDS011;54551;51.068;5.826;2023-02-15T16:45:50;31.10;;;21.90;;
67751;SDS011;54551;51.068;5.826;2023-02-15T16:52:31;30.57;;;21.57;;
67751;SDS011;54551;51.068;5.826;2023-02-15T16:54:59;28.77;;;20.33;;
67751;SDS011;54551;51.068;5.826;2023-02-15T16:57:47;32.30;;;22.73;;
67751;SDS011;54551;51.068;5.826;2023-02-15T17:00:31;31.87;;;21.53;;
67751;SDS011;54551;51.068;5.826;2023-02-15T17:04:38;31.80;;;21.47;;
67751;SDS011;54551;51.068;5.826;2023-02-15T17:07:02;34.43;;;22.47;;
67751;SDS011;54551;51.068;5.826;2023-02-15T17:17:05;31.60;;;21.50;;
67751;SDS011;54551;51.068;5.826;2023-02-15T17:20:30;31.97;;;23.23;;
67751;SDS011;54551;51.068;5.826;2023-02-15T17:26:32;28.50;;;20.57;;
67751;SDS011;54551;51.068;5.826;2023-02-15T17:31:41;31.10;;;21.57;;
67751;SDS011;54551;51.068;5.826;2023-02-15T17:43:58;33.57;;;21.63;;
67751;SDS011;54551;51.068;5.826;2023-02-15T17:49:57;31.90;;;21.33;;
67751;SDS011;54551;51.068;5.826;2023-02-15T17:52:33;32.73;;;21.67;;
67751;SDS011;54551;51.068;5.826;2023-02-15T18:04:03;35.30;;;22.73;;
67751;SDS011;54551;51.068;5.826;2023-02-15T18:07:02;88.43;;;68.97;;
67751;SDS011;54551;51.068;5.826;2023-02-15T18:10:03;59.37;;;42.80;;
67751;SDS011;54551;51.068;5.826;2023-02-15T18:13:28;50.80;;;41.40;;
67751;SDS011;54551;51.068;5.826;2023-02-15T18:16:03;46.80;;;34.90;;
67751;SDS011;54551;51.068;5.826;2023-02-15T18:18:50;41.10;;;29.77;;
67751;SDS011;54551;51.068;5.826;2023-02-15T18:21:49;42.23;;;28.10;;
67751;SDS011;54551;51.068;5.826;2023-02-15T18:24:45;40.93;;;30.13;;
67751;SDS011;54551;51.068;5.826;2023-02-15T18:27:25;40.87;;;31.23;;
67751;SDS011;54551;51.068;5.826;2023-02-15T18:30:01;37.57;;;27.57;;
67751;SDS011;54551;51.068;5.826;2023-02-15T18:37:29;37.23;;;26.13;;
67751;SDS011;54551;51.068;5.826;2023-02-15T18:50:46;47.63;;;36.73;;
67751;SDS011;54551;51.068;5.826;2023-02-15T18:54:17;39.67;;;30.73;;
67751;SDS011;54551;51.068;5.826;2023-02-15T18:57:31;45.03;;;34.30;;
67751;SDS011;54551;51.068;5.826;2023-02-15T19:13:15;64.40;;;53.73;;
67751;SDS011;54551;51.068;5.826;2023-02-15T19:20:02;41.97;;;32.20;;
67751;SDS011;54551;51.068;5.826;2023-02-15T19:22:50;48.97;;;35.77;;
67751;SDS011;54551;51.068;5.826;2023-02-15T19:25:23;43.03;;;30.63;;
67751;SDS011;54551;51.068;5.826;2023-02-15T19:28:18;38.90;;;27.77;;
67751;SDS011;54551;51.068;5.826;2023-02-15T19:31:20;36.87;;;28.67;;
67751;SDS011;54551;51.068;5.826;2023-02-15T19:33:53;42.27;;;30.40;;
67751;SDS011;54551;51.068;5.826;2023-02-15T19:37:03;43.30;;;30.67;;
67751;SDS011;54551;51.068;5.826;2023-02-15T19:39:37;40.80;;;29.17;;
67751;SDS011;54551;51.068;5.826;2023-02-15T19:42:30;37.23;;;28.03;;
67751;SDS011;54551;51.068;5.826;2023-02-15T19:45:18;39.07;;;30.57;;
67751;SDS011;54551;51.068;5.826;2023-02-15T19:48:04;43.90;;;31.10;;
67751;SDS011;54551;51.068;5.826;2023-02-15T19:50:35;44.87;;;32.97;;
67751;SDS011;54551;51.068;5.826;2023-02-15T19:54:04;41.33;;;29.20;;
67751;SDS011;54551;51.068;5.826;2023-02-15T19:57:10;50.83;;;31.03;;
67751;SDS011;54551;51.068;5.826;2023-02-15T20:00:30;47.47;;;32.83;;
67751;SDS011;54551;51.068;5.826;2023-02-15T20:03:33;43.87;;;30.83;;
67751;SDS011;54551;51.068;5.826;2023-02-15T20:10:56;42.83;;;31.50;;
67751;SDS011;54551;51.068;5.826;2023-02-15T20:14:31;43.63;;;31.60;;
67751;SDS011;54551;51.068;5.826;2023-02-15T20:17:34;44.40;;;31.33;;
67751;SDS011;54551;51.068;5.826;2023-02-15T20:20:49;44.13;;;30.57;;
67751;SDS011;54551;51.068;5.826;2023-02-15T20:23:59;46.57;;;32.63;;
67751;SDS011;54551;51.068;5.826;2023-02-15T20:27:08;43.47;;;31.43;;
67751;SDS011;54551;51.068;5.826;2023-02-15T20:30:27;42.10;;;30.90;;
67751;SDS011;54551;51.068;5.826;2023-02-15T20:37:31;41.53;;;30.57;;
67751;SDS011;54551;51.068;5.826;2023-02-15T20:44:26;41.07;;;30.13;;
67751;SDS011;54551;51.068;5.826;2023-02-15T20:47:29;44.70;;;32.83;;
67751;SDS011;54551;51.068;5.826;2023-02-15T20:50:47;43.17;;;30.47;;
67751;SDS011;54551;51.068;5.826;2023-02-15T20:58:28;44.50;;;30.73;;
67751;SDS011;54551;51.068;5.826;2023-02-15T21:06:25;40.87;;;29.70;;
67751;SDS011;54551;51.068;5.826;2023-02-15T21:14:27;52.87;;;35.20;;
67751;SDS011;54551;51.068;5.826;2023-02-15T21:18:17;45.10;;;33.73;;
67751;SDS011;54551;51.068;5.826;2023-02-15T21:25:46;44.63;;;32.77;;
67751;SDS011;54551;51.068;5.826;2023-02-15T21:28:33;44.43;;;32.27;;
67751;SDS011;54551;51.068;5.826;2023-02-15T21:31:47;50.50;;;37.10;;
67751;SDS011;54551;51.068;5.826;2023-02-15T21:34:30;54.57;;;38.83;;
67751;SDS011;54551;51.068;5.826;2023-02-15T21:37:54;50.97;;;35.80;;
67751;SDS011;54551;51.068;5.826;2023-02-15T21:41:16;47.60;;;34.43;;
67751;SDS011;54551;51.068;5.826;2023-02-15T21:49:23;38.53;;;29.03;;
67751;SDS011;54551;51.068;5.826;2023-02-15T21:53:24;43.17;;;29.90;;
67751;SDS011;54551;51.068;5.826;2023-02-15T21:56:48;36.33;;;29.00;;
67751;SDS011;54551;51.068;5.826;2023-02-15T21:59:49;42.30;;;32.20;;
67751;SDS011;54551;51.068;5.826;2023-02-15T22:05:44;46.90;;;31.23;;
67751;SDS011;54551;51.068;5.826;2023-02-15T22:08:57;38.93;;;29.63;;
67751;SDS011;54551;51.068;5.826;2023-02-15T22:12:48;41.43;;;31.53;;
67751;SDS011;54551;51.068;5.826;2023-02-15T22:16:25;42.67;;;32.57;;
67751;SDS011;54551;51.068;5.826;2023-02-15T22:18:54;42.20;;;30.93;;
67751;SDS011;54551;51.068;5.826;2023-02-15T22:21:51;42.73;;;32.07;;
67751;SDS011;54551;51.068;5.826;2023-02-15T22:32:01;39.20;;;29.97;;
67751;SDS011;54551;51.068;5.826;2023-02-15T22:35:26;40.37;;;30.07;;
67751;SDS011;54551;51.068;5.826;2023-02-15T22:38:36;45.00;;;31.67;;
67751;SDS011;54551;51.068;5.826;2023-02-15T22:41:55;43.50;;;32.00;;
67751;SDS011;54551;51.068;5.826;2023-02-15T22:45:12;41.67;;;29.57;;
67751;SDS011;54551;51.068;5.826;2023-02-15T22:49:04;40.80;;;29.20;;
67751;SDS011;54551;51.068;5.826;2023-02-15T22:52:17;40.93;;;29.70;;
67751;SDS011;54551;51.068;5.826;2023-02-15T22:54:46;41.90;;;30.43;;
67751;SDS011;54551;51.068;5.826;2023-02-15T23:01:02;42.47;;;31.20;;
67751;SDS011;54551;51.068;5.826;2023-02-15T23:04:21;39.97;;;29.60;;
67751;SDS011;54551;51.068;5.826;2023-02-15T23:15:45;45.27;;;31.63;;
67751;SDS011;54551;51.068;5.826;2023-02-15T23:18:53;38.90;;;28.90;;
67751;SDS011;54551;51.068;5.826;2023-02-15T23:54:00;42.57;;;30.27;;
